sensor_id;sensor_type;location;lat;lon;timestamp;P1;durP1;ratioP1;P2;durP2;ratioP2
64932;SDS011;51446;53.850;10.662;2022-08-19T00:00:39;26.57;;;16.97;;
64932;SDS011;51446;53.850;10.662;2022-08-19T00:03:05;25.80;;;18.03;;
64932;SDS011;51446;53.850;10.662;2022-08-19T00:05:31;26.92;;;18.15;;
64932;SDS011;51446;53.850;10.662;2022-08-19T00:07:57;24.57;;;17.73;;
64932;SDS011;51446;53.850;10.662;2022-08-19T00:10:22;22.73;;;16.67;;
64932;SDS011;51446;53.850;10.662;2022-08-19T00:12:49;31.88;;;17.45;;
64932;SDS011;51446;53.850;10.662;2022-08-19T00:15:16;28.35;;;18.77;;
64932;SDS011;51446;53.850;10.662;2022-08-19T00:17:43;27.58;;;18.02;;
64932;SDS011;51446;53.850;10.662;2022-08-19T00:20:11;29.37;;;18.20;;
64932;SDS011;51446;53.850;10.662;2022-08-19T00:22:41;26.80;;;20.00;;
64932;SDS011;51446;53.850;10.662;2022-08-19T00:25:07;31.67;;;19.83;;
64932;SDS011;51446;53.850;10.662;2022-08-19T00:27:32;33.93;;;21.17;;
64932;SDS011;51446;53.850;10.662;2022-08-19T00:29:58;33.78;;;22.70;;
64932;SDS011;51446;53.850;10.662;2022-08-19T00:32:23;33.13;;;21.50;;
64932;SDS011;51446;53.850;10.662;2022-08-19T00:34:50;31.60;;;21.80;;
64932;SDS011;51446;53.850;10.662;2022-08-19T00:37:17;31.30;;;21.33;;
64932;SDS011;51446;53.850;10.662;2022-08-19T00:39:44;31.05;;;20.55;;
64932;SDS011;51446;53.850;10.662;2022-08-19T00:42:09;27.90;;;20.10;;
64932;SDS011;51446;53.850;10.662;2022-08-19T00:44:34;29.20;;;20.07;;
64932;SDS011;51446;53.850;10.662;2022-08-19T00:47:00;34.28;;;20.90;;
64932;SDS011;51446;53.850;10.662;2022-08-19T00:49:27;33.97;;;22.17;;
64932;SDS011;51446;53.850;10.662;2022-08-19T00:51:58;33.35;;;22.45;;
64932;SDS011;51446;53.850;10.662;2022-08-19T00:54:28;37.22;;;22.15;;
64932;SDS011;51446;53.850;10.662;2022-08-19T00:56:56;40.30;;;23.83;;
64932;SDS011;51446;53.850;10.662;2022-08-19T00:59:22;32.13;;;22.10;;
64932;SDS011;51446;53.850;10.662;2022-08-19T01:01:47;37.33;;;22.63;;
64932;SDS011;51446;53.850;10.662;2022-08-19T01:04:13;33.27;;;20.77;;
64932;SDS011;51446;53.850;10.662;2022-08-19T01:06:39;34.60;;;22.83;;
64932;SDS011;51446;53.850;10.662;2022-08-19T01:09:06;32.97;;;21.73;;
64932;SDS011;51446;53.850;10.662;2022-08-19T01:11:33;32.87;;;22.00;;
64932;SDS011;51446;53.850;10.662;2022-08-19T01:14:00;31.00;;;20.23;;
64932;SDS011;51446;53.850;10.662;2022-08-19T01:16:26;38.20;;;21.87;;
64932;SDS011;51446;53.850;10.662;2022-08-19T01:18:53;32.45;;;19.65;;
64932;SDS011;51446;53.850;10.662;2022-08-19T01:24:05;29.48;;;19.48;;
64932;SDS011;51446;53.850;10.662;2022-08-19T01:26:30;29.00;;;20.27;;
64932;SDS011;51446;53.850;10.662;2022-08-19T01:28:56;29.63;;;17.97;;
64932;SDS011;51446;53.850;10.662;2022-08-19T01:31:25;28.57;;;18.33;;
64932;SDS011;51446;53.850;10.662;2022-08-19T01:33:54;28.23;;;18.98;;
64932;SDS011;51446;53.850;10.662;2022-08-19T01:36:27;30.85;;;20.45;;
64932;SDS011;51446;53.850;10.662;2022-08-19T01:38:58;32.53;;;20.38;;
64932;SDS011;51446;53.850;10.662;2022-08-19T01:41:24;29.95;;;18.95;;
64932;SDS011;51446;53.850;10.662;2022-08-19T01:43:51;29.23;;;17.83;;
64932;SDS011;51446;53.850;10.662;2022-08-19T01:46:17;28.88;;;18.98;;
64932;SDS011;51446;53.850;10.662;2022-08-19T01:48:43;32.63;;;19.63;;
64932;SDS011;51446;53.850;10.662;2022-08-19T01:51:10;28.13;;;17.42;;
64932;SDS011;51446;53.850;10.662;2022-08-19T01:53:36;29.73;;;17.10;;
64932;SDS011;51446;53.850;10.662;2022-08-19T01:56:02;29.50;;;18.80;;
64932;SDS011;51446;53.850;10.662;2022-08-19T01:58:29;32.92;;;18.35;;
64932;SDS011;51446;53.850;10.662;2022-08-19T02:01:01;32.85;;;19.48;;
64932;SDS011;51446;53.850;10.662;2022-08-19T02:03:27;35.13;;;19.73;;
64932;SDS011;51446;53.850;10.662;2022-08-19T02:05:57;33.08;;;19.23;;
64932;SDS011;51446;53.850;10.662;2022-08-19T02:08:24;35.50;;;18.85;;
64932;SDS011;51446;53.850;10.662;2022-08-19T02:10:53;34.05;;;19.58;;
64932;SDS011;51446;53.850;10.662;2022-08-19T02:13:18;29.80;;;19.03;;
64932;SDS011;51446;53.850;10.662;2022-08-19T02:15:44;32.08;;;18.83;;
64932;SDS011;51446;53.850;10.662;2022-08-19T02:18:09;33.13;;;17.67;;
64932;SDS011;51446;53.850;10.662;2022-08-19T02:20:36;29.10;;;16.77;;
64932;SDS011;51446;53.850;10.662;2022-08-19T02:23:02;30.38;;;17.70;;
64932;SDS011;51446;53.850;10.662;2022-08-19T02:25:28;39.47;;;19.23;;
64932;SDS011;51446;53.850;10.662;2022-08-19T02:27:53;30.50;;;18.17;;
64932;SDS011;51446;53.850;10.662;2022-08-19T02:30:19;32.23;;;19.53;;
64932;SDS011;51446;53.850;10.662;2022-08-19T02:32:45;35.50;;;18.05;;
64932;SDS011;51446;53.850;10.662;2022-08-19T02:35:11;30.77;;;18.07;;
64932;SDS011;51446;53.850;10.662;2022-08-19T02:37:37;29.67;;;17.10;;
64932;SDS011;51446;53.850;10.662;2022-08-19T02:40:21;26.23;;;14.55;;
64932;SDS011;51446;53.850;10.662;2022-08-19T02:42:46;22.80;;;14.00;;
64932;SDS011;51446;53.850;10.662;2022-08-19T02:45:12;29.27;;;15.03;;
64932;SDS011;51446;53.850;10.662;2022-08-19T02:47:38;29.98;;;16.02;;
64932;SDS011;51446;53.850;10.662;2022-08-19T02:50:04;27.90;;;16.00;;
64932;SDS011;51446;53.850;10.662;2022-08-19T02:52:31;28.67;;;16.52;;
64932;SDS011;51446;53.850;10.662;2022-08-19T02:54:58;30.30;;;15.98;;
64932;SDS011;51446;53.850;10.662;2022-08-19T02:57:23;26.07;;;13.50;;
64932;SDS011;51446;53.850;10.662;2022-08-19T02:59:49;33.23;;;17.97;;
64932;SDS011;51446;53.850;10.662;2022-08-19T03:02:15;34.00;;;17.73;;
64932;SDS011;51446;53.850;10.662;2022-08-19T03:04:40;38.90;;;18.27;;
64932;SDS011;51446;53.850;10.662;2022-08-19T03:07:06;31.70;;;17.80;;
64932;SDS011;51446;53.850;10.662;2022-08-19T03:09:31;33.73;;;17.87;;
64932;SDS011;51446;53.850;10.662;2022-08-19T03:11:56;26.50;;;17.57;;
64932;SDS011;51446;53.850;10.662;2022-08-19T03:14:22;30.00;;;16.93;;
64932;SDS011;51446;53.850;10.662;2022-08-19T03:16:50;28.67;;;16.95;;
64932;SDS011;51446;53.850;10.662;2022-08-19T03:19:17;29.85;;;18.83;;
64932;SDS011;51446;53.850;10.662;2022-08-19T03:21:46;31.70;;;18.00;;
64932;SDS011;51446;53.850;10.662;2022-08-19T03:24:12;29.48;;;17.70;;
64932;SDS011;51446;53.850;10.662;2022-08-19T03:26:40;35.63;;;18.88;;
64932;SDS011;51446;53.850;10.662;2022-08-19T03:29:08;27.95;;;17.52;;
64932;SDS011;51446;53.850;10.662;2022-08-19T03:31:35;25.63;;;15.80;;
64932;SDS011;51446;53.850;10.662;2022-08-19T03:34:02;29.05;;;15.65;;
64932;SDS011;51446;53.850;10.662;2022-08-19T03:36:27;27.13;;;15.38;;
64932;SDS011;51446;53.850;10.662;2022-08-19T03:38:53;30.10;;;16.43;;
64932;SDS011;51446;53.850;10.662;2022-08-19T03:41:21;23.73;;;13.75;;
64932;SDS011;51446;53.850;10.662;2022-08-19T03:43:49;18.97;;;11.97;;
64932;SDS011;51446;53.850;10.662;2022-08-19T03:46:16;31.73;;;17.52;;
64932;SDS011;51446;53.850;10.662;2022-08-19T03:48:45;29.52;;;15.98;;
64932;SDS011;51446;53.850;10.662;2022-08-19T03:51:16;29.95;;;15.65;;
64932;SDS011;51446;53.850;10.662;2022-08-19T03:53:43;27.60;;;16.23;;
64932;SDS011;51446;53.850;10.662;2022-08-19T03:56:09;29.90;;;15.07;;
64932;SDS011;51446;53.850;10.662;2022-08-19T03:58:35;26.23;;;15.65;;
64932;SDS011;51446;53.850;10.662;2022-08-19T04:01:02;30.83;;;16.60;;
64932;SDS011;51446;53.850;10.662;2022-08-19T04:03:35;30.15;;;16.63;;
64932;SDS011;51446;53.850;10.662;2022-08-19T04:06:14;28.13;;;16.37;;
64932;SDS011;51446;53.850;10.662;2022-08-19T04:08:42;24.55;;;12.40;;
64932;SDS011;51446;53.850;10.662;2022-08-19T04:11:09;32.15;;;16.50;;
64932;SDS011;51446;53.850;10.662;2022-08-19T04:13:36;24.00;;;15.07;;
64932;SDS011;51446;53.850;10.662;2022-08-19T04:16:01;29.88;;;17.08;;
64932;SDS011;51446;53.850;10.662;2022-08-19T04:18:28;24.90;;;15.10;;
64932;SDS011;51446;53.850;10.662;2022-08-19T04:20:54;21.65;;;13.52;;
64932;SDS011;51446;53.850;10.662;2022-08-19T04:23:20;18.60;;;13.57;;
64932;SDS011;51446;53.850;10.662;2022-08-19T04:25:45;28.27;;;14.73;;
64932;SDS011;51446;53.850;10.662;2022-08-19T04:28:11;23.40;;;15.38;;
64932;SDS011;51446;53.850;10.662;2022-08-19T04:30:48;19.87;;;12.53;;
64932;SDS011;51446;53.850;10.662;2022-08-19T04:33:16;28.13;;;16.75;;
64932;SDS011;51446;53.850;10.662;2022-08-19T04:35:44;25.65;;;16.60;;
64932;SDS011;51446;53.850;10.662;2022-08-19T04:38:12;28.13;;;16.52;;
64932;SDS011;51446;53.850;10.662;2022-08-19T04:40:45;25.33;;;16.45;;
64932;SDS011;51446;53.850;10.662;2022-08-19T04:43:31;25.50;;;14.47;;
64932;SDS011;51446;53.850;10.662;2022-08-19T04:45:58;26.63;;;16.35;;
64932;SDS011;51446;53.850;10.662;2022-08-19T04:48:23;25.57;;;15.23;;
64932;SDS011;51446;53.850;10.662;2022-08-19T04:50:52;23.27;;;14.77;;
64932;SDS011;51446;53.850;10.662;2022-08-19T04:53:23;29.25;;;16.85;;
64932;SDS011;51446;53.850;10.662;2022-08-19T04:55:53;30.20;;;17.13;;
64932;SDS011;51446;53.850;10.662;2022-08-19T04:58:23;25.87;;;15.60;;
64932;SDS011;51446;53.850;10.662;2022-08-19T05:00:50;32.70;;;19.23;;
64932;SDS011;51446;53.850;10.662;2022-08-19T05:03:15;31.33;;;16.90;;
64932;SDS011;51446;53.850;10.662;2022-08-19T05:05:41;36.70;;;19.33;;
64932;SDS011;51446;53.850;10.662;2022-08-19T05:08:08;28.77;;;16.02;;
64932;SDS011;51446;53.850;10.662;2022-08-19T05:10:35;30.50;;;17.40;;
64932;SDS011;51446;53.850;10.662;2022-08-19T05:13:02;34.67;;;19.92;;
64932;SDS011;51446;53.850;10.662;2022-08-19T05:15:28;28.30;;;17.60;;
64932;SDS011;51446;53.850;10.662;2022-08-19T05:17:53;29.57;;;18.73;;
64932;SDS011;51446;53.850;10.662;2022-08-19T05:20:37;36.50;;;19.65;;
64932;SDS011;51446;53.850;10.662;2022-08-19T05:23:22;29.87;;;17.27;;
64932;SDS011;51446;53.850;10.662;2022-08-19T05:25:47;25.73;;;15.43;;
64932;SDS011;51446;53.850;10.662;2022-08-19T05:28:12;31.53;;;19.00;;
64932;SDS011;51446;53.850;10.662;2022-08-19T05:30:38;29.30;;;19.80;;
64932;SDS011;51446;53.850;10.662;2022-08-19T05:33:05;34.97;;;19.52;;
64932;SDS011;51446;53.850;10.662;2022-08-19T05:35:30;31.10;;;20.67;;
64932;SDS011;51446;53.850;10.662;2022-08-19T05:37:56;26.97;;;18.83;;
64932;SDS011;51446;53.850;10.662;2022-08-19T05:40:21;28.17;;;18.93;;
64932;SDS011;51446;53.850;10.662;2022-08-19T05:42:47;32.20;;;20.63;;
64932;SDS011;51446;53.850;10.662;2022-08-19T05:45:14;34.17;;;20.38;;
64932;SDS011;51446;53.850;10.662;2022-08-19T05:47:39;31.23;;;19.67;;
64932;SDS011;51446;53.850;10.662;2022-08-19T05:50:05;33.47;;;19.93;;
64932;SDS011;51446;53.850;10.662;2022-08-19T05:52:30;33.77;;;19.83;;
64932;SDS011;51446;53.850;10.662;2022-08-19T05:54:56;31.95;;;18.58;;
64932;SDS011;51446;53.850;10.662;2022-08-19T05:57:22;29.00;;;17.30;;
64932;SDS011;51446;53.850;10.662;2022-08-19T05:59:48;31.77;;;19.77;;
64932;SDS011;51446;53.850;10.662;2022-08-19T06:02:16;34.60;;;21.03;;
64932;SDS011;51446;53.850;10.662;2022-08-19T06:04:41;37.05;;;21.67;;
64932;SDS011;51446;53.850;10.662;2022-08-19T06:07:09;30.50;;;19.70;;
64932;SDS011;51446;53.850;10.662;2022-08-19T06:09:35;33.27;;;20.00;;
64932;SDS011;51446;53.850;10.662;2022-08-19T06:12:02;36.03;;;21.45;;
64932;SDS011;51446;53.850;10.662;2022-08-19T06:14:30;39.80;;;20.57;;
64932;SDS011;51446;53.850;10.662;2022-08-19T06:16:57;39.20;;;21.88;;
64932;SDS011;51446;53.850;10.662;2022-08-19T06:19:26;37.25;;;21.88;;
64932;SDS011;51446;53.850;10.662;2022-08-19T06:21:53;40.35;;;23.35;;
64932;SDS011;51446;53.850;10.662;2022-08-19T06:24:20;38.93;;;23.33;;
64932;SDS011;51446;53.850;10.662;2022-08-19T06:26:48;39.38;;;22.30;;
64932;SDS011;51446;53.850;10.662;2022-08-19T06:29:16;36.53;;;21.07;;
64932;SDS011;51446;53.850;10.662;2022-08-19T06:31:44;41.08;;;21.65;;
64932;SDS011;51446;53.850;10.662;2022-08-19T06:34:11;40.83;;;21.80;;
64932;SDS011;51446;53.850;10.662;2022-08-19T06:36:38;37.15;;;22.05;;
64932;SDS011;51446;53.850;10.662;2022-08-19T06:39:06;36.10;;;21.92;;
64932;SDS011;51446;53.850;10.662;2022-08-19T06:41:38;40.13;;;21.90;;
64932;SDS011;51446;53.850;10.662;2022-08-19T06:44:09;38.15;;;22.48;;
64932;SDS011;51446;53.850;10.662;2022-08-19T06:46:35;44.42;;;23.48;;
64932;SDS011;51446;53.850;10.662;2022-08-19T06:49:01;38.60;;;22.10;;
64932;SDS011;51446;53.850;10.662;2022-08-19T06:51:27;41.38;;;22.80;;
64932;SDS011;51446;53.850;10.662;2022-08-19T06:53:54;39.50;;;22.37;;
64932;SDS011;51446;53.850;10.662;2022-08-19T06:56:24;38.03;;;23.15;;
64932;SDS011;51446;53.850;10.662;2022-08-19T06:58:58;41.17;;;23.83;;
64932;SDS011;51446;53.850;10.662;2022-08-19T07:01:24;41.10;;;21.73;;
64932;SDS011;51446;53.850;10.662;2022-08-19T07:03:50;38.83;;;22.10;;
64932;SDS011;51446;53.850;10.662;2022-08-19T07:06:16;37.50;;;21.57;;
64932;SDS011;51446;53.850;10.662;2022-08-19T07:08:43;38.92;;;23.42;;
64932;SDS011;51446;53.850;10.662;2022-08-19T07:11:13;42.08;;;21.33;;
64932;SDS011;51446;53.850;10.662;2022-08-19T07:13:42;34.22;;;20.67;;
64932;SDS011;51446;53.850;10.662;2022-08-19T07:16:09;40.93;;;22.23;;
64932;SDS011;51446;53.850;10.662;2022-08-19T07:18:37;41.72;;;24.02;;
64932;SDS011;51446;53.850;10.662;2022-08-19T07:21:04;41.05;;;23.00;;
64932;SDS011;51446;53.850;10.662;2022-08-19T07:23:35;41.78;;;23.58;;
64932;SDS011;51446;53.850;10.662;2022-08-19T07:26:04;42.17;;;22.80;;
64932;SDS011;51446;53.850;10.662;2022-08-19T07:28:31;43.22;;;23.25;;
64932;SDS011;51446;53.850;10.662;2022-08-19T07:30:56;44.47;;;24.67;;
64932;SDS011;51446;53.850;10.662;2022-08-19T07:33:22;47.13;;;24.40;;
64932;SDS011;51446;53.850;10.662;2022-08-19T07:35:47;47.57;;;24.87;;
64932;SDS011;51446;53.850;10.662;2022-08-19T07:38:12;46.37;;;24.23;;
64932;SDS011;51446;53.850;10.662;2022-08-19T07:40:38;46.97;;;23.85;;
64932;SDS011;51446;53.850;10.662;2022-08-19T07:43:05;48.20;;;25.00;;
64932;SDS011;51446;53.850;10.662;2022-08-19T07:45:30;42.50;;;23.13;;
64932;SDS011;51446;53.850;10.662;2022-08-19T07:47:57;53.70;;;25.73;;
64932;SDS011;51446;53.850;10.662;2022-08-19T07:50:22;62.10;;;28.33;;
64932;SDS011;51446;53.850;10.662;2022-08-19T07:52:48;54.93;;;27.33;;
64932;SDS011;51446;53.850;10.662;2022-08-19T07:55:16;56.90;;;27.30;;
64932;SDS011;51446;53.850;10.662;2022-08-19T07:57:44;61.92;;;27.42;;
64932;SDS011;51446;53.850;10.662;2022-08-19T08:00:09;57.53;;;28.10;;
64932;SDS011;51446;53.850;10.662;2022-08-19T08:02:34;59.90;;;27.67;;
64932;SDS011;51446;53.850;10.662;2022-08-19T08:05:00;64.37;;;28.30;;
64932;SDS011;51446;53.850;10.662;2022-08-19T08:07:43;59.10;;;26.80;;
64932;SDS011;51446;53.850;10.662;2022-08-19T08:10:27;64.97;;;28.43;;
64932;SDS011;51446;53.850;10.662;2022-08-19T08:12:53;64.83;;;28.93;;
64932;SDS011;51446;53.850;10.662;2022-08-19T08:15:20;58.58;;;28.50;;
64932;SDS011;51446;53.850;10.662;2022-08-19T08:17:45;62.47;;;29.90;;
64932;SDS011;51446;53.850;10.662;2022-08-19T08:20:10;70.53;;;30.67;;
64932;SDS011;51446;53.850;10.662;2022-08-19T08:22:37;66.35;;;30.40;;
64932;SDS011;51446;53.850;10.662;2022-08-19T08:25:26;72.38;;;30.20;;
64932;SDS011;51446;53.850;10.662;2022-08-19T08:27:51;63.87;;;29.27;;
64932;SDS011;51446;53.850;10.662;2022-08-19T08:30:18;69.20;;;30.38;;
64932;SDS011;51446;53.850;10.662;2022-08-19T08:32:46;68.18;;;29.23;;
64932;SDS011;51446;53.850;10.662;2022-08-19T08:35:14;70.97;;;29.97;;
64932;SDS011;51446;53.850;10.662;2022-08-19T08:37:41;65.10;;;29.38;;
64932;SDS011;51446;53.850;10.662;2022-08-19T08:40:10;69.35;;;31.38;;
64932;SDS011;51446;53.850;10.662;2022-08-19T08:42:43;73.78;;;33.03;;
64932;SDS011;51446;53.850;10.662;2022-08-19T08:45:16;68.22;;;30.35;;
64932;SDS011;51446;53.850;10.662;2022-08-19T08:47:44;70.87;;;31.20;;
64932;SDS011;51446;53.850;10.662;2022-08-19T08:53:18;68.03;;;30.73;;
64932;SDS011;51446;53.850;10.662;2022-08-19T08:55:44;72.90;;;31.30;;
64932;SDS011;51446;53.850;10.662;2022-08-19T08:58:29;70.20;;;31.25;;
64932;SDS011;51446;53.850;10.662;2022-08-19T09:01:08;63.17;;;30.20;;
64932;SDS011;51446;53.850;10.662;2022-08-19T09:03:36;67.93;;;31.75;;
64932;SDS011;51446;53.850;10.662;2022-08-19T09:06:06;67.30;;;31.33;;
64932;SDS011;51446;53.850;10.662;2022-08-19T09:11:15;68.93;;;31.20;;
64932;SDS011;51446;53.850;10.662;2022-08-19T09:16:27;74.63;;;32.15;;
64932;SDS011;51446;53.850;10.662;2022-08-19T09:18:57;69.50;;;30.70;;
64932;SDS011;51446;53.850;10.662;2022-08-19T09:21:26;71.68;;;31.98;;
64932;SDS011;51446;53.850;10.662;2022-08-19T09:23:52;66.03;;;30.05;;
64932;SDS011;51446;53.850;10.662;2022-08-19T09:26:19;70.50;;;31.30;;
64932;SDS011;51446;53.850;10.662;2022-08-19T09:28:48;65.78;;;32.00;;
64932;SDS011;51446;53.850;10.662;2022-08-19T09:31:16;63.07;;;30.03;;
64932;SDS011;51446;53.850;10.662;2022-08-19T09:33:44;68.20;;;30.75;;
64932;SDS011;51446;53.850;10.662;2022-08-19T09:36:10;70.90;;;30.23;;
64932;SDS011;51446;53.850;10.662;2022-08-19T09:38:38;77.85;;;34.03;;
64932;SDS011;51446;53.850;10.662;2022-08-19T09:41:08;72.93;;;32.38;;
64932;SDS011;51446;53.850;10.662;2022-08-19T09:43:39;66.93;;;31.10;;
64932;SDS011;51446;53.850;10.662;2022-08-19T09:46:06;72.18;;;32.00;;
64932;SDS011;51446;53.850;10.662;2022-08-19T09:48:34;70.20;;;31.88;;
64932;SDS011;51446;53.850;10.662;2022-08-19T09:51:10;66.03;;;31.17;;
64932;SDS011;51446;53.850;10.662;2022-08-19T09:53:40;75.05;;;33.40;;
64932;SDS011;51446;53.850;10.662;2022-08-19T09:56:06;65.90;;;30.90;;
64932;SDS011;51446;53.850;10.662;2022-08-19T09:58:32;62.27;;;30.67;;
64932;SDS011;51446;53.850;10.662;2022-08-19T10:00:58;71.05;;;31.70;;
64932;SDS011;51446;53.850;10.662;2022-08-19T10:03:25;63.40;;;29.17;;
64932;SDS011;51446;53.850;10.662;2022-08-19T10:05:52;73.30;;;32.05;;
64932;SDS011;51446;53.850;10.662;2022-08-19T10:08:19;70.73;;;30.53;;
64932;SDS011;51446;53.850;10.662;2022-08-19T10:10:46;67.50;;;31.58;;
64932;SDS011;51446;53.850;10.662;2022-08-19T10:13:13;70.45;;;31.20;;
64932;SDS011;51446;53.850;10.662;2022-08-19T10:15:41;65.05;;;28.67;;
64932;SDS011;51446;53.850;10.662;2022-08-19T10:18:07;60.57;;;28.23;;
64932;SDS011;51446;53.850;10.662;2022-08-19T10:20:32;68.00;;;31.27;;
64932;SDS011;51446;53.850;10.662;2022-08-19T10:23:00;67.13;;;31.27;;
64932;SDS011;51446;53.850;10.662;2022-08-19T10:25:26;62.33;;;29.83;;
64932;SDS011;51446;53.850;10.662;2022-08-19T10:27:52;66.17;;;29.57;;
64932;SDS011;51446;53.850;10.662;2022-08-19T10:30:18;62.22;;;28.73;;
64932;SDS011;51446;53.850;10.662;2022-08-19T10:32:44;70.00;;;29.55;;
64932;SDS011;51446;53.850;10.662;2022-08-19T10:35:12;60.90;;;27.88;;
64932;SDS011;51446;53.850;10.662;2022-08-19T10:37:38;56.27;;;27.57;;
64932;SDS011;51446;53.850;10.662;2022-08-19T10:40:06;57.38;;;27.92;;
64932;SDS011;51446;53.850;10.662;2022-08-19T10:42:33;52.28;;;26.25;;
64932;SDS011;51446;53.850;10.662;2022-08-19T10:45:00;54.38;;;26.90;;
64932;SDS011;51446;53.850;10.662;2022-08-19T10:47:25;59.00;;;26.93;;
64932;SDS011;51446;53.850;10.662;2022-08-19T10:49:51;56.37;;;26.27;;
64932;SDS011;51446;53.850;10.662;2022-08-19T10:52:36;56.55;;;26.50;;
64932;SDS011;51446;53.850;10.662;2022-08-19T10:55:05;49.83;;;25.40;;
64932;SDS011;51446;53.850;10.662;2022-08-19T10:57:50;52.42;;;24.80;;
64932;SDS011;51446;53.850;10.662;2022-08-19T11:00:17;46.50;;;24.70;;
64932;SDS011;51446;53.850;10.662;2022-08-19T11:02:42;51.33;;;24.90;;
64932;SDS011;51446;53.850;10.662;2022-08-19T11:05:08;45.13;;;23.93;;
64932;SDS011;51446;53.850;10.662;2022-08-19T11:07:36;56.90;;;26.05;;
64932;SDS011;51446;53.850;10.662;2022-08-19T11:10:02;51.17;;;25.02;;
64932;SDS011;51446;53.850;10.662;2022-08-19T11:12:28;53.17;;;26.00;;
64932;SDS011;51446;53.850;10.662;2022-08-19T11:14:53;54.47;;;25.80;;
64932;SDS011;51446;53.850;10.662;2022-08-19T11:17:19;47.40;;;26.15;;
64932;SDS011;51446;53.850;10.662;2022-08-19T11:19:45;48.27;;;26.33;;
64932;SDS011;51446;53.850;10.662;2022-08-19T11:22:13;50.40;;;25.27;;
64932;SDS011;51446;53.850;10.662;2022-08-19T11:24:38;50.63;;;25.67;;
64932;SDS011;51446;53.850;10.662;2022-08-19T11:27:06;48.67;;;25.10;;
64932;SDS011;51446;53.850;10.662;2022-08-19T11:29:34;44.55;;;24.67;;
64932;SDS011;51446;53.850;10.662;2022-08-19T11:32:09;48.35;;;26.23;;
64932;SDS011;51446;53.850;10.662;2022-08-19T11:34:35;51.77;;;26.33;;
64932;SDS011;51446;53.850;10.662;2022-08-19T11:37:01;43.50;;;24.90;;
64932;SDS011;51446;53.850;10.662;2022-08-19T11:39:29;43.05;;;23.83;;
64932;SDS011;51446;53.850;10.662;2022-08-19T11:41:57;42.90;;;24.23;;
64932;SDS011;51446;53.850;10.662;2022-08-19T11:44:23;43.78;;;23.98;;
64932;SDS011;51446;53.850;10.662;2022-08-19T11:46:50;45.40;;;24.27;;
64932;SDS011;51446;53.850;10.662;2022-08-19T11:49:17;42.87;;;24.67;;
64932;SDS011;51446;53.850;10.662;2022-08-19T11:51:46;40.47;;;23.47;;
64932;SDS011;51446;53.850;10.662;2022-08-19T11:54:14;39.22;;;23.45;;
64932;SDS011;51446;53.850;10.662;2022-08-19T11:56:42;39.72;;;23.20;;
64932;SDS011;51446;53.850;10.662;2022-08-19T11:59:07;36.10;;;21.83;;
64932;SDS011;51446;53.850;10.662;2022-08-19T12:01:33;38.10;;;21.57;;
64932;SDS011;51446;53.850;10.662;2022-08-19T12:03:58;40.50;;;22.87;;
64932;SDS011;51446;53.850;10.662;2022-08-19T12:06:29;33.60;;;21.73;;
64932;SDS011;51446;53.850;10.662;2022-08-19T12:08:57;36.92;;;21.38;;
64932;SDS011;51446;53.850;10.662;2022-08-19T12:11:24;31.65;;;19.58;;
64932;SDS011;51446;53.850;10.662;2022-08-19T12:13:50;33.97;;;21.03;;
64932;SDS011;51446;53.850;10.662;2022-08-19T12:16:17;29.45;;;17.45;;
64932;SDS011;51446;53.850;10.662;2022-08-19T12:18:44;25.95;;;17.83;;
64932;SDS011;51446;53.850;10.662;2022-08-19T12:21:11;35.47;;;20.53;;
64932;SDS011;51446;53.850;10.662;2022-08-19T12:23:41;29.92;;;18.88;;
64932;SDS011;51446;53.850;10.662;2022-08-19T12:26:06;36.25;;;21.33;;
64932;SDS011;51446;53.850;10.662;2022-08-19T12:28:33;29.48;;;19.38;;
64932;SDS011;51446;53.850;10.662;2022-08-19T12:30:59;38.60;;;19.40;;
64932;SDS011;51446;53.850;10.662;2022-08-19T12:33:24;29.30;;;18.20;;
64932;SDS011;51446;53.850;10.662;2022-08-19T12:35:52;31.52;;;20.00;;
64932;SDS011;51446;53.850;10.662;2022-08-19T12:38:18;34.07;;;19.47;;
64932;SDS011;51446;53.850;10.662;2022-08-19T12:40:47;37.45;;;20.95;;
64932;SDS011;51446;53.850;10.662;2022-08-19T12:43:13;33.78;;;20.67;;
64932;SDS011;51446;53.850;10.662;2022-08-19T12:45:40;33.97;;;19.83;;
64932;SDS011;51446;53.850;10.662;2022-08-19T12:48:06;31.05;;;19.92;;
64932;SDS011;51446;53.850;10.662;2022-08-19T12:50:31;32.03;;;20.77;;
64932;SDS011;51446;53.850;10.662;2022-08-19T12:52:56;31.13;;;19.53;;
64932;SDS011;51446;53.850;10.662;2022-08-19T12:55:22;33.35;;;20.13;;
64932;SDS011;51446;53.850;10.662;2022-08-19T12:57:49;34.10;;;19.58;;
64932;SDS011;51446;53.850;10.662;2022-08-19T13:00:16;37.78;;;21.63;;
64932;SDS011;51446;53.850;10.662;2022-08-19T13:02:46;32.40;;;19.33;;
64932;SDS011;51446;53.850;10.662;2022-08-19T13:05:15;34.08;;;21.02;;
64932;SDS011;51446;53.850;10.662;2022-08-19T13:07:44;39.33;;;21.88;;
64932;SDS011;51446;53.850;10.662;2022-08-19T13:10:11;34.95;;;20.17;;
64932;SDS011;51446;53.850;10.662;2022-08-19T13:12:40;41.07;;;22.33;;
64932;SDS011;51446;53.850;10.662;2022-08-19T13:15:06;32.60;;;20.23;;
64932;SDS011;51446;53.850;10.662;2022-08-19T13:17:33;32.50;;;20.50;;
64932;SDS011;51446;53.850;10.662;2022-08-19T13:19:58;37.50;;;20.63;;
64932;SDS011;51446;53.850;10.662;2022-08-19T13:22:24;32.60;;;20.80;;
64932;SDS011;51446;53.850;10.662;2022-08-19T13:24:49;32.28;;;18.83;;
64932;SDS011;51446;53.850;10.662;2022-08-19T13:27:15;29.47;;;18.93;;
64932;SDS011;51446;53.850;10.662;2022-08-19T13:29:40;31.90;;;20.27;;
64932;SDS011;51446;53.850;10.662;2022-08-19T13:32:25;36.88;;;20.48;;
64932;SDS011;51446;53.850;10.662;2022-08-19T13:35:09;30.55;;;19.40;;
64932;SDS011;51446;53.850;10.662;2022-08-19T13:37:35;26.23;;;19.57;;
64932;SDS011;51446;53.850;10.662;2022-08-19T13:40:06;31.15;;;18.83;;
64932;SDS011;51446;53.850;10.662;2022-08-19T13:42:36;29.52;;;19.50;;
64932;SDS011;51446;53.850;10.662;2022-08-19T13:45:01;25.87;;;18.63;;
64932;SDS011;51446;53.850;10.662;2022-08-19T13:47:26;29.07;;;18.43;;
64932;SDS011;51446;53.850;10.662;2022-08-19T13:49:52;28.07;;;18.57;;
64932;SDS011;51446;53.850;10.662;2022-08-19T13:52:17;27.93;;;18.33;;
64932;SDS011;51446;53.850;10.662;2022-08-19T13:54:43;24.48;;;17.30;;
64932;SDS011;51446;53.850;10.662;2022-08-19T13:57:08;23.57;;;17.63;;
64932;SDS011;51446;53.850;10.662;2022-08-19T13:59:34;27.13;;;18.20;;
64932;SDS011;51446;53.850;10.662;2022-08-19T14:01:59;25.13;;;17.93;;
64932;SDS011;51446;53.850;10.662;2022-08-19T14:04:25;25.30;;;17.10;;
64932;SDS011;51446;53.850;10.662;2022-08-19T14:06:51;26.37;;;18.20;;
64932;SDS011;51446;53.850;10.662;2022-08-19T14:09:16;26.30;;;18.00;;
64932;SDS011;51446;53.850;10.662;2022-08-19T14:11:41;27.97;;;18.07;;
64932;SDS011;51446;53.850;10.662;2022-08-19T14:14:07;26.63;;;18.47;;
64932;SDS011;51446;53.850;10.662;2022-08-19T14:16:32;24.73;;;17.60;;
64932;SDS011;51446;53.850;10.662;2022-08-19T14:18:57;26.13;;;18.00;;
64932;SDS011;51446;53.850;10.662;2022-08-19T14:21:23;27.30;;;18.33;;